METAR Data
IDs: Format: Raw Decoded Include TAF

Data at: 0010 UTC 26 Oct 2021

PABR 260002Z 07012KT 1 3/4SM -SN BR OVC032 M04/M06 A2931 RMK AO2 P0000 T10391056
PABR 252353Z 07011KT 1 3/4SM -SN BR FEW014 BKN025 OVC031 M03/M06 A2931 RMK AO2 SNB18 SLP925 P0000 60000 I1001 I6003 T10331056 11022 21033 58005
PABR 252337Z 07012KT 1SM R08/6000VP6000FT -SN BR SCT008 BKN015 OVC031 M03/M06 A2931 RMK AO2 SNB18 P0000 I1001 T10331056
PABR 252331Z 07013KT 1 1/4SM R08/6000VP6000FT -SN BR BKN008 OVC013 M03/M06 A2931 RMK AO2 SNB18 P0000 I1001 T10331056
PABR 252319Z 07013KT 2 1/2SM -SN BR BKN008 OVC011 M03/M06 A2931 RMK AO2 SNB18 P0000 I1001 T10331056
PABR 252306Z 07013KT 4SM BR OVC008 M03/M05 A2931 RMK AO2 I1000 T10331050
PABR 252253Z 08013KT 4SM BR SCT008 OVC011 M03/M05 A2932 RMK AO2 SLP928 I1001 T10331050
PABR 252153Z 07012KT 4SM BR SCT008 OVC011 M03/M05 A2932 RMK AO2 SLP928 I1001 T10281050
PABR 252137Z 08013KT 4SM BR OVC011 M03/M05 A2932 RMK AO2 I1001 T10281050
PABR 252112Z 08014KT 4SM BR BKN006 OVC011 M03/M05 A2932 RMK AO2 I1000 T10281050
PABR 252105Z 08012KT 2SM BR BKN008 OVC012 M03/M05 A2932 RMK AO2 VIS 1 1/2V3 T10281050
PABR 252053Z 08013KT 2SM BR SCT006 BKN010 OVC022 M03/M04 A2932 RMK AO2 CIG 008V012 SLP930 I1000 I3000 T10281044 58003
PABR 252048Z 08011KT 3SM BR FEW006 BKN010 OVC021 M03/M05 A2932 RMK AO2 I1000
PABR 251953Z 07012KT 10SM OVC022 M03/M05 A2933 RMK AO2 SLP932 T10281050
PABR 251930Z 08012KT 9SM OVC018 M03/M05 A2933 RMK AO2 T10281050
PABR 251853Z 08015KT 8SM OVC012 M03/M05 A2933 RMK AO2 SLP933 I1000 T10281050
PABR 251753Z 08014KT 6SM HZ OVC014 M02/M05 A2933 RMK AO2 SLP933 60000 I6002 T10221050 11022 21028 57010
PABR 251653Z 09013KT 4SM BR BKN010 OVC012 M02/M04 A2934 RMK AO2 SNE1555 SLP936 P0000 I1001 T10221044 $
PABR 251553Z 09007KT 6SM -SN BR OVC012 M03/M05 A2935 RMK AO2 SNB46 SLP940 P0000 I1000 T10281050 $
PABR 251453Z 10009KT 10SM OVC012 M02/M05 A2936 RMK AO2 SLP943 60000 I3001 T10221050 58007 $
PABR 251437Z 11011KT 10SM OVC012 M02/M04 A2936 RMK AO2 T10221044 $
PABR 251357Z 08011KT 8SM SCT010 OVC017 M02/M04 A2936 RMK AO2 T10221044 $
PABR 251353Z 08012KT 9SM BKN008 OVC016 M02/M04 A2936 RMK AO2 SNB26E35 CIG 007V011 SLP945 P0000 I1001 T10221044 $
PABR 251342Z AUTO 09011KT 6SM BR BKN008 OVC015 M02/M04 A2937 RMK AO2 SNB26E35 CIG 006V011 P0000 I1001 T10221044 TSNO $
PABR 251321Z AUTO 09008KT 9SM BKN011 OVC020 M02/M04 A2937 RMK AO2 VIS 2 1/2 NE CIG 006V012 I1000 T10221044 TSNO $
PABR 251253Z AUTO 10008KT 6SM BR OVC009 M02/M04 A2938 RMK AO2 SLP949 T10221044 TSNO $
PABR 251215Z AUTO 10007KT 10SM BKN009 OVC024 M03/M05 A2938 RMK AO2 T10281050 TSNO $
PABR 251153Z AUTO 09007KT 10SM FEW009 OVC024 M03/M05 A2938 RMK AO2 CIG 010 NE SLP950 T10281050 11022 21033 58010 TSNO $
PABR 251138Z AUTO 10006KT 10SM FEW009 OVC025 M03/M05 A2938 RMK AO2 T10281050 TSNO $
PABR 251053Z AUTO 10007KT 10SM OVC027 M03/M05 A2940 RMK AO2 SLP955 T10281050 TSNO $
PABR 250953Z AUTO 10007KT 10SM FEW011 OVC029 M03/M06 A2940 RMK AO2 SLP958 T10331056 TSNO $
PABR 250853Z AUTO 09007KT 10SM OVC028 M03/M06 A2941 RMK AO2 SLP960 T10281056 410171028 58005 TSNO $
PABR 250825Z AUTO 10007KT 10SM SCT013 OVC028 M03/M06 A2941 RMK AO2 T10281056 TSNO $
PABR 250801Z AUTO 10007KT 10SM OVC011 M03/M05 A2941 RMK AO2 T10281050 TSNO $
PABR 250753Z AUTO 10006KT 10SM BKN009 OVC013 M03/M05 A2941 RMK AO2 CIG 008V012 SLP961 T10281050 TSNO $
PABR 250700Z AUTO 11007KT 10SM OVC009 M03/M05 A2942 RMK AO2 CIG 008V012 T10281050 TSNO $
PABR 250653Z AUTO 11007KT 10SM OVC011 M03/M05 A2942 RMK AO2 CIG 008V012 SLP964 T10281050 TSNO $
PABR 250635Z AUTO 11008KT 10SM OVC011 M02/M05 A2943 RMK AO2 T10221050 TSNO $
PABR 250603Z AUTO 11008KT 10SM OVC009 M02/M05 A2943 RMK AO2 CIG 006V012 T10221050 TSNO $
PABR 250553Z 09007KT 8SM OVC011 M03/M05 A2942 RMK AO2 SLP965 60000 T10281050 11022 21028 58009 $
PABR 250519Z 09005KT 10SM BKN013 BKN018 OVC034 M03/M06 A2943 RMK AO2 T10281056 $
PABR 250449Z 09006KT 10SM SCT016 OVC033 M03/M05 A2944 RMK AO2 SLP969 T10281050 $
PABR 250448Z 09005KT 10SM SCT016 OVC033 M03/M05 A2944 RMK AO2 $
PABR 250406Z 07005KT 10SM BKN013 OVC023 M03/M05 A2944 RMK AO2 T10281050 $
PABR 250353Z 07005KT 10SM SCT015 OVC022 M03/M06 A2944 RMK AO2 CIG 015 NE SLP971 T10281056 $
PABR 250334Z 08006KT 10SM OVC015 M03/M05 A2944 RMK AO2 T10281050 $
PABR 250253Z 08006KT 10SM OVC013 M02/M05 A2945 RMK AO2 SLP974 60000 T10221050 56005 $
PABR 250153Z 07010KT 9SM OVC011 M02/M04 A2946 RMK AO2 SNB19E27 SLP975 P0000 T10221044 $
PABR 250113Z 07007KT 6SM HZ OVC009 M02/M05 A2946 RMK AO2 T10221050 $
PABR 250053Z 06007KT 10SM OVC011 M02/M05 A2946 RMK AO2 SLP977 T10221050 $
PABR 242353Z 06008KT 10SM BKN013 OVC018 M02/M05 A2947 RMK AO2 SLP979 T10221050 11022 21028 58007 $
PABR 242319Z 07005KT 10SM OVC014 M02/M05 A2947 RMK AO2 T10221050 $
PABR 242253Z 07006KT 10SM OVC016 M02/M05 A2947 RMK AO2 SLP982 T10221050 $
PABR 242153Z 07005KT 10SM OVC018 M02/M05 A2948 RMK AO2 SLP984 T10221050 $
PABR 242053Z 08004KT 10SM OVC016 M03/M05 A2949 RMK AO2 SLP986 T10281050 50002 $
PABR 241953Z 09005KT 10SM OVC012 M02/M05 A2949 RMK AO2 SLP986 T10221050 $
PABR 241930Z 08005KT 9SM BKN011 OVC016 M02/M05 A2948 RMK AO2 T10221050 $
PABR 241918Z 06006KT 10SM OVC016 M02/M05 A2948 RMK AO2 T10221050 $
PABR 241853Z 05005KT 10SM OVC012 M02/M05 A2948 RMK AO2 SLP984 T10221050 $
PABR 241753Z 04006KT 10SM BKN012 OVC021 M02/M06 A2948 RMK AO2 SLP984 60000 T10221056 11017 21022 54000 $
PABR 241653Z 02005KT 10SM OVC015 M02/M06 A2948 RMK AO2 SLP983 T10221056 $
PABR 241553Z 03005KT 10SM OVC017 M02/M06 A2948 RMK AO2 SLP984 T10171056 $
PABR 241453Z 35006KT 10SM FEW017 BKN023 OVC030 M02/M06 A2948 RMK AO2 SLP983 60000 T10171056 50005 $
PABR 241353Z 36008KT 10SM FEW013 BKN024 OVC055 M02/M06 A2948 RMK AO2 SLP984 T10171056 $
PABR 241343Z AUTO 36006KT 10SM FEW013 BKN023 OVC075 M02/M06 A2948 RMK AO2 T10171056 TSNO $
PABR 241253Z AUTO 36009KT 10SM SCT020 OVC055 M02/M06 A2947 RMK AO2 SNE17 SLP980 P0000 T10171056 TSNO $